Hovedside
METAR-TAF:

METAR-TAF

Lufthavner :

El-Tor, Egypt

breddegrad: 28-14N, lengdegrad: 032-37E, høyde over havet: 21 m

Gjeldene værobservasjon

Denne rapporten ble laget for 26 minutter siden, klokken 21:00 UTC
Vind 9 kt fra Nord
Temperatur 18°C
Luftfuktighet 83%
Trykk 1017 hPa
Sikt 10 km eller mer
ingen skyer under 1500 m og ingen bygeskyer

METAR: HETR 282100Z 35009KT CAVOK 18/15 Q1017

Tid: 23:26 (21:26 UTC)

Varsel

Denne rapporten ble laget for 4 timer og 26 minutter siden, klokken 17:00 UTC
Varsel gyldig fra 28. klokken 18 UTC til 29. klokken 24 UTC
Vind 10 kt fra Vest-nordvest
Sikt 10 km eller mer
ingen skyer under 1500 m og ingen bygeskyer

TAF: HETR 281700Z 2818/2924 30010KT CAVOK

Værobservasjoner og værvarsel for over 4000 flyplasser (METAR- og TAF-rapporter).

Tilgjengelige stasjoner er representert av de røde og gule prikkene på kartet.

Hold musepekeren over prikken for å se navnet på stasjonen.

Klikk så for å se værobservasjoner og -varsler.

For å forandre kartet kan du klikke på den grønne knappen med svart kryss for å zoome inn, på den grønne knappen med strek for å zoome ut, eller på de grønne pilene for å se tilstøtende kart.


METAR-TAF: